Ames, Texas
Current Conditions -  °F | °C
As of 5:35 PM on Saturday 22 Nov 2014 (Local Time) from KBMT Reporting Station
Thunderstorm Thunderstorm  
Wind Chill: 65°   Ceiling: 900
Heat Index: 65°   Visibility: 10mi
Dew Point: 64°   Wind: 10mph
Humidity: 94%   Direction: 120°ESE
Pressure: 29.87"   Gusts: 16mph
Location:  30.0821°N, 94.7401°W
Report Text: KBMT 222335Z AUTO 12009G14KT 10SM VCTS OVC009 19/18 A2987 RMK AO2 LTG DSNT W T01850176
Loading
Personal Weather Stations






























Interactive Weather Map New forecast layout! Learn more

10-Day Weather Forecast

Advertisements
Track Severe Weather on mobile